Information for Amílcar Cabral International Airport

back to airport list

ICAO Code:GVAC Country:Cape Verde
Airport Name:Amílcar Cabral International Airport Is Hub:No
Latitude:16.7425 Longitude:-22.9481
Scheduled Departures:0 Scheduled Arrivals:0
Total Past Departures:1 Total Past Arrivals:1
Pilots Based:0 Current Pilot Location:0
GVAC 242100Z 07008KT 9999 SCT014 26/20 Q1013 NOSIG


Nearby Destination Airports

ICAO Airport Country GC Distance View
No destination airports within a 500 NM radius!


+ Show Timetable

Scheduled Departures from GVAC

Flight To Destination Days Dep. Time Aircraft Info
No Scheduled Departures!


Scheduled Arrivals to GVAC

Flight From Origin Days Arr. Time Aircraft Info
No Scheduled Arrivals!
+ Show Recent Flight Info

Recent Departures from GVAC

Flight To Destination Pilot Flighttime Landingrate Aircraft View
ASXC56 GCFV Fuerteventura Airport Damian Belica 02.43.24 -139 ft/m B734 View Report


Recent Arrivals to GVAC

Flight From Origin Pilot Flighttime Landingrate Aircraft View
ASXC55 SBFN Fernando de Noronha Airport Damian Belica 03.39.40 -254 ft/m B734 View Report
+ Show Pilot Information

Pilots based at GVAC

Avatar Pilot ID Name Location Rank View Profile
No Pilots are based at this airport!


Pilots currently at GVAC

Avatar Pilot ID Name Location Rank On Location since View Profile
Currently there are no pilots at this airport!
- Hide Map